UAL8303 SBGR-PANC
Flight info
| Callsign | UAL8303 |
|---|---|
| Flight time | N/A |
| Altitude | 32000 |
| Route | GERTU UL304 VUDIR UM417 PUDKA UL304 KONKI UM417 BRUTI UL304 POVLA/N0504F340 UL304 BODLO A756 KNSLY Y298 RUMFO/N0495F360 Y298 VENDS Y185 MANLE Q89 SHRKS Q77 TEUFL/N0491F370 Q77 MELKR/N0489F360 DCT IRQ J99 IIU J89 CADIZ/N0494F380 J89 OBK J101 BAE J89 DLH Q834 OTLUR Q906 KENRU Q919 YVC Q963 YMM/N0487F400 J513 YYE J515 YXY Q811 GKN PTERS3 |
| Aircraft | B772/H-SDE2E3FGHIJ5LORVWXY/LB1D1 |
Departure
| Time | N/A |
|---|---|
| Airport | São Paulo/Guarulhos–Governor André Franco Montoro International Airport (SBGR) |
Arrival
| Time | 2026-05-07 19:01 |
|---|---|
| Airport | Ted Stevens Anchorage International Airport (PANC) |
| Time | Latitude | Longitude | Altitude | Speed | Heading |
|---|---|---|---|---|---|
| 2026-05-07 18:13 | 61.35262 | -138.93686 | 38038 ft | 447 kts | 287° |
| 2026-05-07 18:13 | 61.37229 | -139.06026 | 38043 ft | 451 kts | 284° |
| 2026-05-07 18:14 | 61.40829 | -139.31271 | 38051 ft | 462 kts | 284° |
| 2026-05-07 18:14 | 61.44433 | -139.57194 | 38013 ft | 472 kts | 284° |
| 2026-05-07 18:15 | 61.48052 | -139.83756 | 38075 ft | 478 kts | 283° |
| 2026-05-07 18:15 | 61.51635 | -140.10547 | 37999 ft | 483 kts | 283° |
| 2026-05-07 18:16 | 61.55206 | -140.37732 | 38004 ft | 483 kts | 283° |
| 2026-05-07 18:16 | 61.58692 | -140.64763 | 37952 ft | 483 kts | 283° |
| 2026-05-07 18:17 | 61.62145 | -140.92026 | 37925 ft | 483 kts | 283° |
| 2026-05-07 18:17 | 61.65712 | -141.19270 | 37955 ft | 484 kts | 284° |
| 2026-05-07 18:18 | 61.74967 | -141.89410 | 38001 ft | 487 kts | 283° |
| 2026-05-07 18:18 | 61.76724 | -142.03172 | 37883 ft | 486 kts | 283° |
| 2026-05-07 18:19 | 61.78465 | -142.16936 | 37908 ft | 486 kts | 283° |
| 2026-05-07 18:19 | 61.80186 | -142.30662 | 37937 ft | 486 kts | 283° |
| 2026-05-07 18:20 | 61.81905 | -142.44498 | 37954 ft | 486 kts | 283° |
| 2026-05-07 18:20 | 61.83599 | -142.58263 | 37950 ft | 487 kts | 283° |
| 2026-05-07 18:21 | 61.85295 | -142.72163 | 37883 ft | 487 kts | 282° |
| 2026-05-07 18:21 | 61.86969 | -142.86024 | 37859 ft | 486 kts | 282° |
| 2026-05-07 18:22 | 61.88622 | -142.99835 | 37858 ft | 487 kts | 282° |
| 2026-05-07 18:22 | 61.90274 | -143.13763 | 37848 ft | 487 kts | 282° |
| 2026-05-07 18:23 | 61.91902 | -143.27635 | 37808 ft | 488 kts | 282° |
| 2026-05-07 18:23 | 61.93527 | -143.41606 | 37811 ft | 488 kts | 282° |
| 2026-05-07 18:24 | 61.95129 | -143.55524 | 37810 ft | 490 kts | 282° |
| 2026-05-07 18:24 | 61.96735 | -143.69608 | 37839 ft | 488 kts | 281° |
| 2026-05-07 18:25 | 61.98312 | -143.83575 | 37807 ft | 491 kts | 281° |
| 2026-05-07 18:25 | 61.99892 | -143.97719 | 37688 ft | 493 kts | 281° |
| 2026-05-07 18:26 | 62.01457 | -144.11865 | 37718 ft | 492 kts | 282° |
| 2026-05-07 18:26 | 62.02998 | -144.25944 | 37875 ft | 491 kts | 282° |
| 2026-05-07 18:27 | 62.04531 | -144.40088 | 37948 ft | 491 kts | 282° |
| 2026-05-07 18:27 | 62.06054 | -144.54291 | 37981 ft | 491 kts | 281° |
| 2026-05-07 18:28 | 62.07560 | -144.68492 | 37976 ft | 491 kts | 281° |
| 2026-05-07 18:28 | 62.09038 | -144.82575 | 37988 ft | 491 kts | 281° |
| 2026-05-07 18:29 | 62.10514 | -144.96783 | 37991 ft | 490 kts | 280° |
| 2026-05-07 18:29 | 62.11965 | -145.10915 | 38018 ft | 490 kts | 281° |
| 2026-05-07 18:30 | 62.13384 | -145.25111 | 38022 ft | 490 kts | 278° |
| 2026-05-07 18:30 | 62.13546 | -145.39533 | 38044 ft | 487 kts | 262° |
| 2026-05-07 18:31 | 62.11785 | -145.53328 | 38038 ft | 486 kts | 246° |
| 2026-05-07 18:31 | 62.08429 | -145.65858 | 38034 ft | 487 kts | 238° |
| 2026-05-07 18:32 | 62.04792 | -145.77885 | 38025 ft | 486 kts | 237° |
| 2026-05-07 18:32 | 62.01098 | -145.89810 | 38001 ft | 486 kts | 237° |
| 2026-05-07 18:33 | 61.97341 | -146.01749 | 37993 ft | 487 kts | 237° |
| 2026-05-07 18:33 | 61.93561 | -146.13635 | 37994 ft | 488 kts | 236° |
| 2026-05-07 18:34 | 61.89748 | -146.25525 | 37969 ft | 488 kts | 236° |
| 2026-05-07 18:34 | 61.85931 | -146.37347 | 37979 ft | 487 kts | 237° |
| 2026-05-07 18:35 | 61.82123 | -146.49072 | 38008 ft | 486 kts | 237° |
| 2026-05-07 18:35 | 61.78289 | -146.60812 | 38013 ft | 486 kts | 237° |
| 2026-05-07 18:36 | 61.74445 | -146.72517 | 37956 ft | 480 kts | 236° |
| 2026-05-07 18:36 | 61.72569 | -146.78207 | 37594 ft | 471 kts | 236° |
| 2026-05-07 18:36 | 61.70715 | -146.83817 | 36638 ft | 471 kts | 236° |
| 2026-05-07 18:36 | 61.68851 | -146.89445 | 35399 ft | 472 kts | 235° |
| 2026-05-07 18:37 | 61.66997 | -146.95029 | 34366 ft | 475 kts | 236° |
| 2026-05-07 18:37 | 61.65118 | -147.00673 | 33529 ft | 471 kts | 236° |
| 2026-05-07 18:37 | 61.63260 | -147.06239 | 33003 ft | 464 kts | 235° |
| 2026-05-07 18:37 | 61.61414 | -147.11758 | 32253 ft | 467 kts | 235° |
| 2026-05-07 18:38 | 61.59578 | -147.17232 | 31558 ft | 463 kts | 235° |
| 2026-05-07 18:38 | 61.57753 | -147.22658 | 31209 ft | 450 kts | 236° |
| 2026-05-07 18:38 | 61.55970 | -147.27949 | 31094 ft | 434 kts | 235° |
| 2026-05-07 18:38 | 61.54256 | -147.33026 | 30906 ft | 420 kts | 235° |
| 2026-05-07 18:39 | 61.52584 | -147.37967 | 30387 ft | 415 kts | 236° |
| 2026-05-07 18:39 | 61.50931 | -147.42842 | 29642 ft | 414 kts | 235° |
| 2026-05-07 18:39 | 61.49278 | -147.47707 | 28914 ft | 413 kts | 236° |
| 2026-05-07 18:39 | 61.47636 | -147.52527 | 28271 ft | 409 kts | 236° |
| 2026-05-07 18:40 | 61.45978 | -147.57384 | 27642 ft | 405 kts | 236° |
| 2026-05-07 18:40 | 61.44369 | -147.62088 | 27053 ft | 401 kts | 236° |
| 2026-05-07 18:40 | 61.42762 | -147.66777 | 26442 ft | 397 kts | 235° |
| 2026-05-07 18:40 | 61.41175 | -147.71400 | 25838 ft | 393 kts | 235° |
| 2026-05-07 18:41 | 61.39595 | -147.75992 | 25233 ft | 390 kts | 234° |
| 2026-05-07 18:41 | 61.38023 | -147.80550 | 24614 ft | 387 kts | 234° |
| 2026-05-07 18:41 | 61.36463 | -147.85068 | 23971 ft | 384 kts | 234° |
| 2026-05-07 18:41 | 61.34916 | -147.89537 | 23356 ft | 382 kts | 234° |
| 2026-05-07 18:42 | 61.33355 | -147.94038 | 22650 ft | 381 kts | 234° |
| 2026-05-07 18:42 | 61.31832 | -147.98422 | 22055 ft | 377 kts | 234° |
| 2026-05-07 18:42 | 61.30297 | -148.02832 | 21501 ft | 373 kts | 234° |
| 2026-05-07 18:42 | 61.28812 | -148.07089 | 20989 ft | 368 kts | 234° |
| 2026-05-07 18:43 | 61.27309 | -148.11389 | 20451 ft | 363 kts | 234° |
| 2026-05-07 18:43 | 61.25850 | -148.15558 | 19912 ft | 359 kts | 234° |
| 2026-05-07 18:43 | 61.24392 | -148.19717 | 19367 ft | 355 kts | 234° |
| 2026-05-07 18:43 | 61.22948 | -148.23828 | 18850 ft | 350 kts | 234° |
| 2026-05-07 18:44 | 61.21534 | -148.27844 | 18373 ft | 346 kts | 234° |
| 2026-05-07 18:44 | 61.20126 | -148.31838 | 17913 ft | 343 kts | 234° |
| 2026-05-07 18:44 | 61.18680 | -148.35933 | 17446 ft | 357 kts | 234° |
| 2026-05-07 18:44 | 61.17287 | -148.40112 | 16943 ft | 356 kts | 239° |
| 2026-05-07 18:45 | 61.16241 | -148.44714 | 16447 ft | 354 kts | 249° |
| 2026-05-07 18:45 | 61.15625 | -148.49606 | 16049 ft | 351 kts | 259° |
| 2026-05-07 18:45 | 61.15453 | -148.54700 | 15820 ft | 357 kts | 269° |
| 2026-05-07 18:45 | 61.15722 | -148.59744 | 15500 ft | 358 kts | 279° |
| 2026-05-07 18:46 | 61.16445 | -148.64688 | 15213 ft | 361 kts | 289° |
| 2026-05-07 18:46 | 61.17406 | -148.69481 | 14877 ft | 359 kts | 289° |
| 2026-05-07 18:46 | 61.18334 | -148.74228 | 14584 ft | 358 kts | 288° |
| 2026-05-07 18:46 | 61.19229 | -148.79027 | 14324 ft | 358 kts | 287° |
| 2026-05-07 18:47 | 61.20099 | -148.83835 | 14075 ft | 356 kts | 287° |
| 2026-05-07 18:47 | 61.20956 | -148.88667 | 13827 ft | 355 kts | 287° |
| 2026-05-07 18:47 | 61.21802 | -148.93488 | 13583 ft | 356 kts | 287° |
| 2026-05-07 18:47 | 61.22641 | -148.98306 | 13335 ft | 354 kts | 287° |
| 2026-05-07 18:48 | 61.23463 | -149.03056 | 13099 ft | 354 kts | 287° |
| 2026-05-07 18:48 | 61.24236 | -149.07880 | 12861 ft | 352 kts | 281° |
| 2026-05-07 18:48 | 61.24643 | -149.12903 | 12621 ft | 350 kts | 275° |
| 2026-05-07 18:48 | 61.24955 | -149.17868 | 12316 ft | 348 kts | 275° |
| 2026-05-07 18:49 | 61.25255 | -149.22836 | 12106 ft | 348 kts | 275° |
| 2026-05-07 18:49 | 61.25551 | -149.27765 | 11879 ft | 347 kts | 275° |
| 2026-05-07 18:49 | 61.25846 | -149.32706 | 11629 ft | 347 kts | 275° |
| 2026-05-07 18:49 | 61.26141 | -149.37677 | 11358 ft | 346 kts | 274° |
| 2026-05-07 18:50 | 61.26432 | -149.42629 | 11090 ft | 346 kts | 275° |
| 2026-05-07 18:50 | 61.26716 | -149.47488 | 10750 ft | 335 kts | 274° |
| 2026-05-07 18:50 | 61.26987 | -149.52148 | 10554 ft | 311 kts | 274° |
| 2026-05-07 18:50 | 61.27235 | -149.56468 | 10356 ft | 291 kts | 274° |
| 2026-05-07 18:51 | 61.27465 | -149.60516 | 10229 ft | 280 kts | 273° |
| 2026-05-07 18:51 | 61.27688 | -149.64487 | 9992 ft | 278 kts | 274° |
| 2026-05-07 18:51 | 61.27913 | -149.68509 | 9716 ft | 276 kts | 273° |
| 2026-05-07 18:51 | 61.28429 | -149.72321 | 9428 ft | 279 kts | 292° |
| 2026-05-07 18:52 | 61.29377 | -149.75868 | 9208 ft | 279 kts | 298° |
| 2026-05-07 18:52 | 61.30387 | -149.79309 | 9003 ft | 280 kts | 298° |
| 2026-05-07 18:52 | 61.31408 | -149.82770 | 8755 ft | 278 kts | 298° |
| 2026-05-07 18:52 | 61.32418 | -149.86218 | 8436 ft | 278 kts | 298° |
| 2026-05-07 18:53 | 61.33424 | -149.89661 | 8148 ft | 276 kts | 298° |
| 2026-05-07 18:53 | 61.34437 | -149.93045 | 7853 ft | 276 kts | 304° |
| 2026-05-07 18:53 | 61.35899 | -149.95664 | 7493 ft | 280 kts | 332° |
| 2026-05-07 18:53 | 61.37682 | -149.97087 | 7170 ft | 277 kts | 343° |
| 2026-05-07 18:54 | 61.39534 | -149.98215 | 6687 ft | 274 kts | 343° |
| 2026-05-07 18:54 | 61.41360 | -149.99385 | 6165 ft | 273 kts | 343° |
| 2026-05-07 18:54 | 61.43164 | -150.00545 | 5725 ft | 269 kts | 343° |
| 2026-05-07 18:54 | 61.44916 | -150.01758 | 5284 ft | 266 kts | 333° |
| 2026-05-07 18:55 | 61.46352 | -150.04123 | 4776 ft | 262 kts | 305° |
| 2026-05-07 18:55 | 61.47092 | -150.07498 | 4253 ft | 257 kts | 277° |
| 2026-05-07 18:55 | 61.47036 | -150.11121 | 3739 ft | 251 kts | 251° |
| 2026-05-07 18:55 | 61.46211 | -150.14239 | 3198 ft | 246 kts | 222° |
| 2026-05-07 18:56 | 61.44810 | -150.15994 | 3024 ft | 236 kts | 194° |
| 2026-05-07 18:56 | 61.43169 | -150.16148 | 2964 ft | 236 kts | 167° |
| 2026-05-07 18:56 | 61.41624 | -150.14987 | 2981 ft | 238 kts | 157° |
| 2026-05-07 18:56 | 61.40157 | -150.13455 | 2980 ft | 236 kts | 154° |
| 2026-05-07 18:57 | 61.38657 | -150.12094 | 2979 ft | 237 kts | 159° |
| 2026-05-07 18:57 | 61.37103 | -150.10996 | 2981 ft | 238 kts | 162° |
| 2026-05-07 18:57 | 61.35495 | -150.10020 | 2981 ft | 238 kts | 164° |
| 2026-05-07 18:57 | 61.33894 | -150.09131 | 2984 ft | 239 kts | 165° |
| 2026-05-07 18:58 | 61.32317 | -150.08266 | 2934 ft | 232 kts | 165° |
| 2026-05-07 18:58 | 61.30824 | -150.07460 | 2620 ft | 208 kts | 165° |
| 2026-05-07 18:58 | 61.29493 | -150.06752 | 2346 ft | 189 kts | 165° |
| 2026-05-07 18:58 | 61.28274 | -150.06084 | 2087 ft | 174 kts | 164° |
| 2026-05-07 18:59 | 61.27176 | -150.05472 | 1853 ft | 154 kts | 164° |
| 2026-05-07 18:59 | 61.26195 | -150.04927 | 1634 ft | 139 kts | 164° |
| 2026-05-07 18:59 | 61.25284 | -150.04417 | 1430 ft | 134 kts | 164° |
| 2026-05-07 18:59 | 61.24387 | -150.03915 | 1222 ft | 133 kts | 165° |
| 2026-05-07 19:00 | 61.23513 | -150.03426 | 1014 ft | 130 kts | 165° |
| 2026-05-07 19:00 | 61.22635 | -150.02936 | 815 ft | 130 kts | 165° |
| 2026-05-07 19:00 | 61.21748 | -150.02438 | 614 ft | 131 kts | 165° |
| 2026-05-07 19:00 | 61.20874 | -150.01952 | 413 ft | 131 kts | 166° |
| 2026-05-07 19:01 | 61.20009 | -150.01468 | 230 ft | 129 kts | 166° |
| 2026-05-07 19:01 | 61.19177 | -150.01009 | 166 ft | 113 kts | 166° |
| 2026-05-07 19:01 | 61.18704 | -150.00729 | 166 ft | 30 kts | 160° |
| 2026-05-07 19:01 | 61.18668 | -150.00520 | 166 ft | 10 kts | 83° |
| 2026-05-07 19:02 | 61.18651 | -150.00388 | 166 ft | 10 kts | 140° |
| 2026-05-07 19:02 | 61.18578 | -150.00317 | 166 ft | 12 kts | 167° |
| 2026-05-07 19:02 | 61.18483 | -150.00266 | 166 ft | 15 kts | 164° |
| 2026-05-07 19:02 | 61.18369 | -150.00201 | 166 ft | 18 kts | 165° |
| 2026-05-07 19:03 | 61.18242 | -150.00128 | 166 ft | 20 kts | 165° |
| 2026-05-07 19:03 | 61.18101 | -150.00047 | 166 ft | 22 kts | 164° |
| 2026-05-07 19:03 | 61.17945 | -149.99959 | 166 ft | 24 kts | 165° |
| 2026-05-07 19:03 | 61.17777 | -149.99866 | 166 ft | 26 kts | 163° |
| 2026-05-07 19:04 | 61.17600 | -149.99753 | 166 ft | 27 kts | 163° |
| 2026-05-07 19:04 | 61.17408 | -149.99641 | 166 ft | 29 kts | 166° |
| 2026-05-07 19:04 | 61.17289 | -149.99464 | 166 ft | 20 kts | 90° |
| 2026-05-07 19:04 | 61.17299 | -149.99159 | 166 ft | 22 kts | 73° |
| 2026-05-07 19:05 | 61.17359 | -149.98843 | 166 ft | 24 kts | 58° |
| 2026-05-07 19:05 | 61.17421 | -149.98585 | 166 ft | 12 kts | 92° |
| 2026-05-07 19:05 | 61.17424 | -149.98442 | 166 ft | 0 kts | 90° |